Latest Weather Observations for Oodnadatta

IDS60801

Issued at 9:31 am CST Tuesday 25 September 2018 (issued every 10 minutes, with the page automatically refreshed every 10 minutes)

About weather observations | Map of weather stations | Latest weather observations for SA | Other Formats
Station Details ID: 017043 Name: OODNADATTA AIRPORT Lat: -27.56 Lon: 135.45 Height: 116.5 m
Data from the previous 72 hours. | See also: Recent months at Oodnadatta
Date/Time
CST
Temp
°C
App
Temp
°C
Dew
Point
°C
Rel
Hum
%
Delta-T
°C
Wind Press
QNH
hPa
Press
MSL
hPa
Rain since
9am
mm
Dir  Spd
km/h
Gust
km/h
Spd
kts
Gust
kts
25/09:30am 21.7 13.6 -2.9 19 10.4 ENE 30 35 16 19 1024.0 1023.7 0.0
25/09:00am 20.2 12.0 -4.1 19 9.9 E 30 35 16 19 1024.0 1023.7 0.0
25/08:30am 19.0 11.2 -3.8 21 9.2 E 28 39 15 21 1023.9 1023.6 0.0
25/08:00am 17.7 10.3 -3.7 23 8.6 E 26 32 14 17 1023.7 1023.4 0.0
25/07:30am 16.1 10.6 -2.4 28 7.5 ESE 17 26 9 14 1023.7 1023.4 0.0
25/07:00am 13.5 8.3 -2.8 32 6.4 ESE 15 20 8 11 1023.5 1023.2 0.0
25/06:30am 9.9 5.9 -6.0 32 5.5 ESE 7 11 4 6 1023.2 1022.9 0.0
25/06:00am 11.1 7.3 -5.4 31 5.9 SE 6 7 3 4 1023.0 1022.7 0.0
25/05:30am 10.1 6.0 -6.2 31 5.7 SE 7 9 4 5 1022.8 1022.5 0.0
25/05:00am 10.4 5.1 -6.8 29 6.0 SE 13 13 7 7 1022.4 1022.1 0.0
25/04:30am 10.9 5.3 -6.9 28 6.2 SE 15 17 8 9 1022.2 1021.9 0.0
25/04:00am 12.1 7.7 -5.8 28 6.5 ESE 9 11 5 6 1022.1 1021.8 0.0
25/03:30am 11.9 7.9 -6.0 28 6.4 SE 7 9 4 5 1022.1 1021.8 0.0
25/03:00am 12.9 8.5 -5.6 27 6.8 SE 9 11 5 6 1022.3 1022.0 0.0
25/02:30am 13.4 9.4 -5.7 26 7.0 SE 7 9 4 5 1022.5 1022.2 0.0
25/02:00am 14.0 9.3 -5.2 26 7.2 SE 11 11 6 6 1022.8 1022.5 0.0
25/01:30am 13.9 10.1 -5.3 26 7.1 ESE 6 7 3 4 1022.9 1022.6 0.0
25/01:00am 13.5 9.6 -6.1 25 7.2 ESE 6 7 3 4 1023.1 1022.8 0.0
25/12:30am 14.0 9.2 -5.7 25 7.3 ESE 11 13 6 7 1023.1 1022.8 0.0
25/12:00am 13.9 8.7 -5.8 25 7.2 ESE 13 17 7 9 1023.2 1022.9 0.0
 
Date/Time
CST
Temp
°C
App
Temp
°C
Dew
Point
°C
Rel
Hum
%
Delta-T
°C
Wind Press
QNH
hPa
Press
MSL
hPa
Rain since
9am
mm
Dir  Spd
km/h
Gust
km/h
Spd
kts
Gust
kts
24/11:30pm 14.5 9.3 -6.4 23 7.6 ESE 13 13 7 7 1023.2 1022.9 0.0
24/11:00pm 15.6 10.0 -6.0 22 8.1 ESE 15 17 8 9 1023.3 1023.0 0.0
24/10:30pm 16.2 10.2 -6.8 20 8.5 ESE 17 17 9 9 1023.3 1023.0 0.0
24/10:00pm 17.0 11.4 -6.8 19 8.9 ESE 15 17 8 9 1023.3 1023.0 0.0
24/09:30pm 18.1 12.9 -6.6 18 9.4 ESE 13 13 7 7 1023.1 1022.8 0.0
24/09:00pm 18.9 13.3 -5.9 18 9.6 SE 15 15 8 8 1022.9 1022.6 0.0
24/08:30pm 19.9 14.8 -5.1 18 10.0 SE 13 13 7 7 1022.7 1022.4 0.0
24/08:00pm 21.5 16.5 -4.5 17 10.7 ESE 13 17 7 9 1022.4 1022.1 0.0
24/07:30pm 22.9 17.5 -4.2 16 11.3 ESE 15 17 8 9 1022.0 1021.7 0.0
24/07:00pm 24.7 18.6 -3.6 15 12.2 SE 19 24 10 13 1021.6 1021.3 0.0
24/06:30pm 25.6 19.7 -2.1 16 12.3 ESE 19 24 10 13 1021.3 1021.0 0.0
24/06:00pm 26.9 20.1 -1.9 15 13.0 SE 24 30 13 16 1020.9 1020.6 0.0
24/05:30pm 27.8 21.1 -1.2 15 13.4 SE 24 33 13 18 1020.7 1020.4 0.0
24/05:00pm 28.0 20.9 -1.0 15 13.5 SE 26 37 14 20 1020.4 1020.1 0.0
24/04:30pm 28.7 22.3 -1.4 14 13.9 SSE 22 39 12 21 1020.4 1020.1 0.0
24/04:00pm 28.6 22.4 -0.5 15 13.7 SSE 22 43 12 23 1020.4 1020.1 0.0
24/03:30pm 28.4 20.9 -1.6 14 13.8 SSE 28 39 15 21 1020.6 1020.3 0.0
24/03:00pm 29.0 23.2 -0.2 15 13.8 SE 20 35 11 19 1021.1 1020.8 0.0
24/02:30pm 29.0 22.4 -0.2 15 13.8 SE 24 37 13 20 1021.7 1021.4 0.0
24/02:00pm 28.2 23.2 -0.9 15 13.6 SE 15 32 8 17 1022.3 1022.0 0.0
24/01:30pm 28.7 23.0 0.4 16 13.5 E 20 32 11 17 1022.8 1022.5 0.0
24/01:00pm 27.8 21.6 -0.3 16 13.2 E 22 33 12 18 1023.3 1023.0 0.0
24/12:30pm 27.3 20.7 -0.7 16 13.0 ESE 24 35 13 19 1023.9 1023.6 0.0
24/12:00pm 27.3 20.3 -0.7 16 13.0 ESE 26 37 14 20 1024.5 1024.2 0.0
24/11:30am 26.8 19.6 0.5 18 12.4 ESE 28 37 15 20 1024.9 1024.7 0.0
24/11:00am 26.3 19.1 0.9 19 12.1 ESE 28 37 15 20 1025.4 1025.2 0.0
24/10:30am 25.2 17.6 0.7 20 11.4 E 30 43 16 23 1025.8 1025.6 0.0
24/10:00am 24.8 16.9 1.0 21 11.2 ESE 32 41 17 22 1026.1 1025.9 0.0
24/09:30am 23.8 16.0 1.4 23 10.5 E 32 37 17 20 1026.1 1025.9 0.0
24/09:00am 22.1 14.3 1.7 26 9.5 E 32 41 17 22 1026.3 1026.1 0.0
24/08:30am 20.8 12.4 1.6 28 8.8 E 35 43 19 23 1026.2 1026.0 0.0
24/08:00am 19.2 11.3 1.2 30 8.1 E 32 43 17 23 1026.0 1025.8 0.0
24/07:30am 17.6 10.3 -0.2 30 7.7 E 28 35 15 19 1025.6 1025.4 0.0
24/07:00am 16.3 9.6 -1.3 30 7.4 E 24 32 13 17 1025.3 1025.1 0.0
24/06:30am 15.5 9.5 -1.5 31 7.0 E 20 28 11 15 1024.9 1024.7 0.0
24/06:00am 15.4 9.4 -1.6 31 7.0 E 20 24 11 13 1024.6 1024.3 0.0
24/05:30am 15.7 9.7 -1.4 31 7.1 E 20 24 11 13 1024.4 1024.1 0.0
24/05:00am 16.0 10.3 -1.1 31 7.2 E 19 24 10 13 1024.2 1023.9 0.0
24/04:30am 15.9 10.5 -1.2 31 7.1 E 17 19 9 10 1023.7 1023.4 0.0
24/04:00am 15.6 10.2 -1.4 31 7.0 E 17 19 9 10 1023.5 1023.2 0.0
24/03:30am 15.4 10.7 -2.1 30 7.1 E 13 15 7 8 1023.4 1023.1 0.0
24/03:00am 16.7 11.2 -1.9 28 7.7 E 17 19 9 10 1023.3 1023.0 0.0
24/02:30am 17.3 11.4 -1.9 27 8.0 E 19 20 10 11 1023.4 1023.1 0.0
24/02:00am 17.9 12.0 -1.9 26 8.3 E 19 24 10 13 1023.4 1023.1 0.0
24/01:30am 18.7 13.3 -1.7 25 8.6 ESE 17 22 9 12 1023.5 1023.2 0.0
24/01:00am 19.4 13.5 -2.2 23 9.1 ESE 19 24 10 13 1023.7 1023.4 0.0
24/12:30am 19.3 13.5 -1.7 24 8.9 ESE 19 24 10 13 1023.9 1023.6 0.0
24/12:00am 16.8 11.7 -5.0 22 8.4 SE 13 17 7 9 1024.1 1023.8 0.0
 
Date/Time
CST
Temp
°C
App
Temp
°C
Dew
Point
°C
Rel
Hum
%
Delta-T
°C
Wind Press
QNH
hPa
Press
MSL
hPa
Rain since
9am
mm
Dir  Spd
km/h
Gust
km/h
Spd
kts
Gust
kts
23/11:30pm 17.6 13.3 -5.0 21 8.8 ESE 9 9 5 5 1024.2 1023.9 0.0
23/11:00pm 18.5 14.3 -4.2 21 9.1 ESE 9 9 5 5 1024.3 1024.0 0.0
23/10:30pm 18.5 13.4 -4.9 20 9.2 ESE 13 13 7 7 1024.3 1024.0 0.0
23/10:00pm 19.6 15.0 -3.9 20 9.6 SE 11 13 6 7 1024.3 1024.0 0.0
23/09:30pm 20.5 15.2 -3.9 19 10.0 ESE 15 17 8 9 1024.1 1023.8 0.0
23/09:00pm 22.2 16.9 -4.0 17 10.9 ESE 15 20 8 11 1024.0 1023.7 0.0
23/08:30pm 23.3 17.6 -3.9 16 11.5 SE 17 19 9 10 1023.7 1023.4 0.0
23/08:00pm 24.8 18.7 -3.6 15 12.3 SE 19 24 10 13 1023.2 1022.9 0.0
23/07:30pm 25.5 19.2 -3.9 14 12.6 ESE 20 26 11 14 1022.9 1022.6 0.0
23/07:00pm 25.9 19.9 -6.8 11 13.4 E 17 20 9 11 1022.6 1022.3 0.0
23/06:30pm 27.1 21.1 -7.1 10 14.1 ESE 17 24 9 13 1022.2 1021.9 0.0
23/06:00pm 28.3 20.1 -7.6 9 14.8 E 28 35 15 19 1021.9 1021.6 0.0
23/05:30pm 29.3 22.3 -6.8 9 15.2 ESE 22 30 12 16 1021.5 1021.2 0.0
23/05:00pm 29.5 22.9 -6.7 9 15.4 ESE 20 30 11 16 1021.5 1021.2 0.0
23/04:30pm 30.0 23.7 -6.3 9 15.6 E 19 28 10 15 1021.5 1021.2 0.0
23/04:00pm 29.6 23.0 -6.6 9 15.4 ESE 20 32 11 17 1021.7 1021.4 0.0
23/03:30pm 29.8 23.3 -6.4 9 15.5 E 20 30 11 16 1021.8 1021.5 0.0
23/03:00pm 30.0 22.3 -6.3 9 15.6 ESE 26 35 14 19 1022.0 1021.7 0.0
23/02:30pm 29.8 22.9 -6.4 9 15.5 ESE 22 37 12 20 1022.3 1022.0 0.0
23/02:00pm 29.1 22.1 -7.0 9 15.2 E 22 33 12 18 1023.0 1022.7 0.0
23/01:30pm 29.1 21.1 -5.6 10 14.9 ESE 28 37 15 20 1023.5 1023.2 0.0
23/01:00pm 28.7 22.2 -5.9 10 14.8 ENE 20 33 11 18 1024.1 1023.8 0.0
23/12:30pm 28.3 21.4 -6.2 10 14.6 ENE 22 30 12 16 1024.7 1024.5 0.0
23/12:00pm 28.7 21.4 -5.9 10 14.7 E 24 35 13 19 1025.2 1025.0 0.0
23/11:30am 27.6 20.3 -6.7 10 14.3 E 24 33 13 18 1025.7 1025.5 0.0
23/11:00am 27.2 19.1 -7.0 10 14.2 E 28 39 15 21 1026.0 1025.8 0.0
23/10:30am 26.7 18.2 -7.4 10 13.9 E 30 39 16 21 1026.3 1026.1 0.0
23/10:00am 26.7 18.9 -7.4 10 14.0 ENE 26 32 14 17 1026.2 1026.0 0.0
23/09:30am 25.8 18.1 -6.9 11 13.3 E 26 33 14 18 1026.2 1026.0 0.0
23/09:00am 23.6 19.0 -4.5 15 11.7 ESE 11 20 6 11 1026.1 1025.9 0.0
23/08:30am 20.2 16.8 -5.6 17 10.2 ESE 4 11 2 6 1025.8 1025.6 0.0
23/08:00am 16.6 13.5 -5.8 21 8.5 SE 2 7 1 4 1025.9 1025.7 0.0
23/07:30am 13.9 11.2 -6.3 24 7.3 CALM 0 0 0 0 1025.8 1025.6 0.0
23/07:00am 11.9 9.1 -7.0 26 6.6 CALM 0 0 0 0 1025.7 1025.5 0.0
23/06:30am 10.5 5.9 -7.7 27 6.1 SSE 9 13 5 7 1025.4 1025.2 0.0
23/06:00am 10.2 5.6 -7.5 28 6.0 SE 9 11 5 6 1025.3 1025.1 0.0
23/05:30am 11.3 5.6 -7.0 27 6.3 S 15 15 8 8 1024.9 1024.7 0.0
23/05:00am 11.5 6.2 -6.8 27 6.4 S 13 17 7 9 1024.9 1024.7 0.0
23/04:30am 12.0 6.3 -7.4 25 6.7 S 15 17 8 9 1024.9 1024.7 0.0
23/04:00am 13.2 8.4 -6.4 25 7.1 S 11 11 6 6 1024.8 1024.6 0.0
23/03:30am 13.6 8.7 -6.6 24 7.3 S 11 11 6 6 1024.8 1024.6 0.0
23/03:00am 13.0 8.1 -7.6 23 7.2 S 11 13 6 7 1024.8 1024.6 0.0
23/02:30am 12.6 7.2 -8.0 23 7.1 S 13 15 7 8 1024.8 1024.6 0.0
23/02:00am 14.1 11.3 -6.7 23 7.6 CALM 0 0 0 0 1024.8 1024.6 0.0
23/01:30am 15.2 12.5 -5.8 23 7.8 CALM 0 6 0 3 1025.1 1024.9 0.0
23/01:00am 14.9 10.8 -6.6 22 7.9 SSE 7 7 4 4 1025.4 1025.2 0.0
23/12:30am 15.3 11.2 -6.3 22 8.0 SSE 7 7 4 4 1025.5 1025.3 0.0
23/12:00am 15.2 12.5 -5.8 23 7.8 CALM 0 0 0 0 1025.7 1025.5 0.0
 
Date/Time
CST
Temp
°C
App
Temp
°C
Dew
Point
°C
Rel
Hum
%
Delta-T
°C
Wind Press
QNH
hPa
Press
MSL
hPa
Rain since
9am
mm
Dir  Spd
km/h
Gust
km/h
Spd
kts
Gust
kts
22/11:30pm 15.8 13.0 -7.1 20 8.4 CALM 0 0 0 0 1025.7 1025.5 0.0
22/11:00pm 16.9 12.8 -6.2 20 8.8 E 7 9 4 5 1025.5 1025.3 0.0
22/10:30pm 17.4 12.6 -6.4 19 9.0 E 11 13 6 7 1025.6 1025.4 0.0
22/10:00pm 18.4 13.2 -6.3 18 9.5 E 13 15 7 8 1025.7 1025.5 0.0
22/09:30pm 19.7 14.2 -5.3 18 9.9 E 15 17 8 9 1025.8 1025.6 0.0
22/09:00pm 20.5 15.1 -4.6 18 10.2 E 15 17 8 9 1025.7 1025.5 0.0
22/08:30pm 21.8 15.7 -4.3 17 10.8 ESE 19 22 10 12 1025.3 1025.1 0.0
22/08:00pm 22.4 16.3 -3.8 17 11.0 ESE 19 22 10 12 1025.1 1024.9 0.0
22/07:30pm 23.1 17.0 -4.1 16 11.4 ESE 19 22 10 12 1024.8 1024.6 0.0
22/07:00pm 24.2 18.0 -3.2 16 11.9 ESE 20 26 11 14 1024.5 1024.2 0.0
22/06:30pm 25.3 18.4 -2.3 16 12.2 ESE 24 30 13 16 1024.1 1023.8 0.0
22/06:00pm 26.4 19.9 -2.3 15 12.8 SE 22 32 12 17 1023.7 1023.4 0.0
22/05:30pm 26.8 20.0 -2.0 15 13.0 SE 24 32 13 17 1023.4 1023.1 0.0
22/05:00pm 27.7 20.9 -2.2 14 13.6 SE 24 32 13 17 1023.0 1022.7 0.0
22/04:30pm 27.4 20.9 -2.4 14 13.4 SSE 22 33 12 18 1022.9 1022.6 0.0
22/04:00pm 28.2 21.7 -2.8 13 14.0 ESE 22 32 12 17 1023.0 1022.7 0.0
22/03:30pm 27.8 21.7 -2.1 14 13.5 ESE 20 32 11 17 1023.2 1022.9 0.0
22/03:00pm 27.9 23.6 -2.0 14 13.6 E 11 28 6 15 1023.6 1023.3 0.0
22/02:30pm 27.6 21.7 -2.3 14 13.5 SE 19 33 10 18 1023.6 1023.3 0.0
22/02:00pm 27.5 21.5 -1.4 15 13.3 ESE 20 32 11 17 1023.9 1023.6 0.0
22/01:30pm 27.4 22.7 -1.5 15 13.2 SSE 13 28 7 15 1024.6 1024.3 0.0
22/01:00pm 27.3 23.0 -1.6 15 13.2 ESE 11 26 6 14 1025.4 1025.2 0.0
22/12:30pm 25.2 20.0 -2.4 16 12.2 ENE 15 20 8 11 1026.0 1025.8 0.0
22/12:00pm 25.1 20.7 -2.5 16 12.1 ESE 11 22 6 12 1026.6 1026.4 0.0
22/11:30am 24.8 19.3 -1.9 17 11.8 SE 17 24 9 13 1027.1 1026.9 0.0
22/11:00am 24.7 19.3 -1.2 18 11.7 E 17 22 9 12 1027.3 1027.1 0.0
22/10:30am 23.6 18.6 -1.3 19 11.0 SE 15 24 8 13 1027.8 1027.6 0.0
22/10:00am 22.9 18.4 -0.6 21 10.6 ESE 13 22 7 12 1028.0 1027.8 0.0

Other Formats:

Comma delimited format used in spreadsheet applications
http://www.bom.gov.au/fwo/IDS60801/IDS60801.94476.axf

JavaScript Object Notation format (JSON) in row-major order
http://www.bom.gov.au/fwo/IDS60801/IDS60801.94476.json